Barranquitas, PR (00794)

2:45 AM AST on August 22, 2014 (GMT -0400)
Farallón | Change Station
CLOSE
Current Station
Personal Weather Station
Location: Cayey, CAYEY
Elevation: 1378 ft
Nearby Weather Stations
Active Advisory: Flash Flood Watch

Elev 1378 ft 18.10 °N, 66.11 °W | Updated 27 seconds ago

Mostly Cloudy
Mostly Cloudy
74.0 °F
Feels Like 71 °F
N
2.0
Wind Variable Wind from NNW
Gusts 5.0 mph

Today
High -- | Low -- °F
--% Chance of Precip.
Yesterday
High -- | Low -- °F
Precip. -- in
6:08 AM 6:47 PM
Waning Crescent, 10% visible
Pressure 29.86 in
Visibility 10.0 miles
Clouds Few 3000 ft
Mostly Cloudy 6000 ft
Heat Index 71 °F
Dew Point 73 °F
Humidity 96%
Rainfall 0.00 in
Snow Depth Not available.
UV 0 out of 12
Pollen Not available.
Air Quality Not available.
Flu Activity Not available.
METAR TJPS 220450Z 00000KT 10SM FEW030CB BKN060 27/24 A2986 RMK OCNL LTGIC SE CB SE

More Conditions Fewer Conditions

Pressure 29.86 in
Visibility 10.0 miles
Clouds Few 3000 ft
Mostly Cloudy 6000 ft
Heat Index 71 °F
Dew Point 73 °F
Humidity 96%
Rainfall 0.00 in
Snow Depth Not available.
UV 0 out of 12
Pollen Not available.
Air Quality Not available.
Flu Activity Not available.
METAR TJPS 220450Z 00000KT 10SM FEW030CB BKN060 27/24 A2986 RMK OCNL LTGIC SE CB SE

More Conditions Fewer Conditions

10-Day Weather Forecast

Almanac

Astronomy

Aug. 22, 2014 Rise Set
Actual Time 6:08 AM AST 6:47 PM AST
Civil Twilight 5:46 AM AST 7:09 PM AST
Nautical Twilight 5:20 AM AST 7:35 PM AST
Astronomical Twilight 4:53 AM AST 8:02 PM AST
Moon 3:38 AM AST 4:45 PM AST
Length of Visible Light 13h 22m
Length of Day
12h 38m
Tomorrow will be 0m 56s shorter.
Waning Crescent, 10% of the Moon is Illuminated
Today
Waning Crescent
Aug 25
New
Sep 2
First Quarter
Sep 8
Full
Sep 15
Last Quarter

Community

WunderPhotos

Upload Photos

1,746,131 photos uploaded!

Nearby

Snow Depth

Station Depth Elevation
No new snow has been reported.

Earthquake Activity

City Distance Mag. Time & Date
No recent earthquake activity has been reported nearby.
Minimum magnitude displayed is 2.5.

Coastal Water Temperatures

Place Temperature
Magueyes Islands, PR 86.0 °F
Yabucoa Harbor, PR 84.0 °F

Nearby Weather Stations